メインページ
METAR-TAF:

METAR-TAF

空港 :

西安, 中華人民共和国

西安咸陽国際空港

緯度: 34-26N, 経度: 108-45E, 海抜: 479m

現時点の気象観測

当レポートは57分前の01:00(UTC)に作成
変向風 2kt
気温 27°C
湿度 45%
気圧 1010 hPa
視程10km以上
1,500メートル以下は雲なし、積乱雲なし

METAR: ZLXY 260100Z VRB01MPS CAVOK 27/14 Q1010 NOSIG

時間: 09:57 (01:57 UTC)


TAF: 見つかりません

4,000以上の空港の気象観測と天気予報(METAR報とTAF報)

利用可能な観測所は地図上に黄色い丸と赤い丸で示す。

丸の上にカーソルを重ねると観測所名を参照できる。

次にクリックすると気象観測と天気予報を参照できる。

マップの切り替え:黒色「×」印の緑ボタンをクリックして拡大、「-」印の緑ボタンをクリックして縮小、緑色の三角印をクリックして隣りの地図に切り替え


METAR-TAF: